Estación Meteorológica Peña el Pijo (Robertgarden) [ 02/03/23 04:37:14 CET ]

Fecha Hora Presion(HPa) Temp (°C) Humedad % Rocio (°C) Viento ( m/s) Direccion Lluvia 1Hora(mm) Lluvia 24H(mm) LLuvia Total(mm)
2012-Oct-05 01:01:18 1012.300 10.2 82 7.2         178.19
2012-Oct-05 02:01:19 1012.500 9.2 83 6.4         178.19
2012-Oct-05 03:04:17 1012.300 8.5 85 6.1         178.19
2012-Oct-05 04:01:19 1011.900 8.0 86 5.8         178.19
2012-Oct-05 05:01:15 1011.900 7.9 87 5.9         178.19
2012-Oct-05 06:01:13 1011.800 7.8 87 5.8         178.19
2012-Oct-05 07:01:21 1011.900 7.7 87 5.7         178.19
2012-Oct-05 08:01:18 1012.000 7.2 86 5.0         178.19
2012-Oct-05 09:01:13 1012.200 7.6 87 5.6         178.19
2012-Oct-05 10:01:11 1012.500 14.9 77 10.9         178.19
2012-Oct-05 11:01:14 1012.800 22.3 47 10.4         178.19
2012-Oct-05 12:01:19 1012.600 24.3 44 11.2         178.19
2012-Oct-05 13:01:14 1012.400 26.6 35 9.8         178.19
2012-Oct-05 14:01:17 1012.300 27.4 29 7.7         178.19
2012-Oct-05 15:01:21 1012.300 27.9 31 9.2         178.19
2012-Oct-05 16:01:19 1011.900 29.0 27 7.9         178.19
2012-Oct-05 17:01:15 1011.800 29.3 29 9.4         178.19
2012-Oct-05 18:01:14 1011.800 27.1 32 8.9         178.19
2012-Oct-05 19:01:13 1011.900 22.4 40 8.2         178.19
2012-Oct-05 20:01:13 1012.700 18.9 48 7.6         178.19
2012-Oct-05 21:01:14 1013.300 15.6 63 8.6         178.19
2012-Oct-05 22:01:13 1013.900 13.6 70 8.2         178.19
2012-Oct-05 23:01:11 1014.400 12.4 75 8.1         178.19

Temperatura Máxima:29°    Temperatura Mínima:
Presión Máxima:1014.400 Hpa    Presión Mínima:1011.800 Hpa


Volver